Amalga, Utah
Current Conditions -  °F | °C
As of 12:51 PM on Monday 26 Jan 2015 (Local Time) from KLGU Reporting Station
Clear Clear  
Wind Chill: 39°   Ceiling: Unl
Heat Index: 39°   Visibility: 10mi
Dew Point: 34°   Wind: 3mph
Humidity: 82%   Direction: 270°W
Pressure: 30.33"   Gusts: NA
Location:  41.8466°N, 111.898°W
Report Text: KLGU 261951Z AUTO 27003KT 10SM CLR 04/01 A3033 RMK AO2 SLP282 T00390011
Loading
Personal Weather Stations






























Interactive Weather Map New forecast layout! Learn more

10-Day Weather Forecast

Advertisements
Track Severe Weather on mobile